KIZG

Eastern Slopes Regional Airport

Fryeburg, Maine, USA
METAR KIZG 161554Z AUTO 36010G19KT 1/2SM SN FZFG VV010 M03/M04 A2963 RMK AO2 SLP040 P0002 T10331044
Observed Flight Rules
Nov-16 @ 15:54 UTC (52 minutes ago) Instrument Flight Rules
Wind Visibility Clouds Conditions
360° at 10 knots
 Gusting to 19 knots
1/2 miles
  • Vertical visibility at 1,000' AGL
  • Snow
  • Freezing
  • Fog
Temperatures Readings Precipitation
Current -3°C / 27°F
Dewpoint -4°C / 25°F
Humidity 93%
Altimeter 29.63" Hg
Pressure 1004 hPa
Elevation 135
Current Rain 0.02
METAR KIZG 161554Z AUTO 36010G19KT 1/2SM SN FZFG VV010 M03/M04 A2963 RMK AO2 SLP040 P0002 T10331044
Observed Flight Rules
Nov-16 @ 15:54 UTC
(52 minutes ago)
LIFR
Wind Visibility
360° at 10 knots
 Gusting to 19 knots
1/2 miles
Clouds
  • Vertical visibility at 1,000' AGL
Conditions
  • Snow
  • Freezing
  • Fog
Temperature Dewpoint
-3°C / 27°F -4°C / 25°F
Humidity Altimeter Pressure
93% 29.63" Hg 1004 hPa
Current Rain
0.02